Terminal Aerodrome Forecast
Issued by NWS Los Angeles, CA

Home | Current Version | Previous Version | Text Only | Print | Product List | Glossary On
Versions: 1 2 3 4 5 6 7 8 9 10 11 12 13 14 15 16 17 18 19 20 21 22 23 24 25 26 27 28 29 30 31 32 33 34
260
FTUS46 KLOX 260539
TAFSMX
TAF
KSMX 260539Z 2606/2706 VRB05KT P6SM SKC
     FM261100 VRB05KT 5SM BR BKN005
     FM261300 VRB03KT 1 1/2SM BR VCFG OVC002
     FM261600 30004KT 6SM BR BKN005
     FM261730 30006KT P6SM FEW010
     FM262000 30012KT P6SM SKC
     FM270200 VRB05KT P6SM SKC=

USA.gov is the U.S. government's official web portal to all federal, state and local government web resources and services.